createdAt,value
2017-12-26T08:11:19.235Z,22.40
2017-12-26T08:13:49.390Z,22.60
2017-12-26T08:16:18.917Z,22.70
2017-12-26T08:18:48.576Z,22.70
2017-12-26T08:21:16.607Z,22.70
2017-12-26T08:23:44.560Z,22.80
2017-12-26T08:26:12.470Z,22.40
2017-12-26T08:28:40.278Z,22.50
2017-12-26T08:31:08.154Z,22.60
2017-12-26T08:33:36.042Z,22.70
2017-12-26T08:36:05.566Z,22.80
2017-12-26T08:38:33.636Z,22.70
2017-12-26T08:41:01.588Z,22.80
2017-12-26T08:43:29.590Z,22.70
2017-12-26T08:45:58.220Z,22.80
2017-12-26T08:48:26.415Z,22.90
2017-12-26T08:50:54.363Z,22.90
2017-12-26T08:56:17.570Z,22.80
2017-12-26T08:58:45.718Z,22.60
2017-12-26T09:01:16.311Z,22.50
2017-12-26T09:03:45.107Z,22.10
2017-12-26T09:06:13.203Z,22.10
2017-12-26T09:08:48.235Z,22.30
2017-12-26T09:11:16.181Z,22.50
2017-12-26T09:13:44.018Z,22.40
2017-12-26T09:16:12.078Z,22.50
2017-12-26T09:18:40.854Z,22.30
2017-12-26T09:21:09.607Z,22.20
2017-12-26T09:23:37.554Z,22.20
2017-12-26T09:26:05.402Z,22.20
2017-12-26T09:28:34.048Z,22.10
2017-12-26T09:31:02.762Z,22.10
2017-12-26T09:33:31.565Z,22.10
2017-12-26T09:36:02.544Z,20.10
2017-12-26T09:39:04.391Z,20.00
2017-12-26T09:41:32.350Z,18.90
2017-12-26T09:44:01.151Z,20.80
2017-12-26T09:46:29.070Z,20.70
2017-12-26T09:48:56.899Z,20.90
2017-12-26T09:51:25.542Z,19.30
2017-12-26T09:53:53.401Z,19.30
2017-12-26T09:56:21.201Z,20.30
2017-12-26T09:58:49.126Z,20.80
2017-12-26T10:01:16.921Z,21.20
2017-12-26T10:03:44.710Z,21.30
2017-12-26T10:06:13.311Z,21.30
2017-12-26T10:08:41.091Z,21.30
2017-12-26T10:11:08.855Z,21.40
2017-12-26T10:13:36.797Z,21.40
2017-12-26T10:16:05.350Z,21.30
2017-12-26T10:18:33.210Z,21.30
2017-12-26T10:21:01.046Z,20.00
2017-12-26T10:23:28.861Z,18.10
2017-12-26T10:25:57.681Z,16.30
2017-12-26T10:28:25.517Z,16.20
2017-12-26T10:30:53.328Z,16.00
2017-12-26T10:33:21.190Z,15.50
2017-12-26T10:35:49.283Z,15.10
2017-12-26T10:38:17.229Z,16.00
2017-12-26T10:40:45.062Z,15.80
2017-12-26T10:43:13.595Z,15.50
2017-12-26T10:45:41.409Z,15.40
2017-12-26T10:48:09.986Z,15.30
2017-12-26T10:50:38.645Z,14.80
2017-12-26T10:53:06.461Z,14.80
2017-12-26T10:55:35.043Z,15.30
2017-12-26T10:58:02.935Z,15.20
2017-12-26T11:00:31.120Z,15.20
2017-12-26T11:02:59.279Z,15.40
2017-12-26T11:05:27.120Z,15.50
2017-12-26T11:07:55.693Z,15.60
2017-12-26T11:10:25.124Z,15.40
2017-12-26T11:12:53.060Z,15.30
2017-12-26T11:15:21.618Z,15.50
2017-12-26T11:17:49.569Z,15.40
2017-12-26T11:20:17.351Z,15.30
2017-12-26T11:22:45.263Z,15.30
2017-12-26T11:25:13.072Z,15.90
2017-12-26T11:27:40.910Z,15.40
2017-12-26T11:30:08.830Z,14.80
2017-12-26T11:32:36.866Z,14.70
2017-12-26T11:35:04.818Z,14.10
2017-12-26T11:37:32.663Z,13.80
2017-12-26T11:40:00.531Z,14.20
2017-12-26T11:42:28.419Z,14.10
2017-12-26T11:44:56.234Z,13.80
2017-12-26T11:47:24.089Z,13.50
2017-12-26T11:49:51.967Z,13.60
2017-12-26T12:05:27.605Z,12.90
2017-12-26T12:07:55.398Z,13.40
2017-12-26T12:10:23.163Z,13.60
2017-12-26T12:12:50.977Z,14.00
2017-12-26T12:15:18.726Z,14.10
2017-12-26T12:17:46.545Z,14.00
2017-12-26T12:20:15.112Z,13.50
2017-12-26T12:22:42.973Z,13.40
2017-12-26T12:25:10.793Z,13.50
2017-12-26T12:27:38.724Z,13.60
2017-12-26T12:30:07.863Z,13.40
2017-12-26T12:32:35.657Z,13.40
2017-12-26T12:35:03.442Z,13.70
2017-12-26T12:37:32.077Z,13.50
2017-12-26T12:40:03.273Z,13.50
2017-12-26T12:42:31.824Z,13.60
2017-12-26T12:45:00.034Z,13.60
2017-12-26T12:47:28.775Z,13.60
2017-12-26T12:49:56.648Z,13.60
2017-12-26T12:52:24.489Z,13.50
2017-12-26T12:54:52.327Z,13.50
2017-12-26T12:57:20.858Z,13.70
2017-12-26T12:59:48.704Z,13.60
2017-12-26T13:02:16.543Z,14.00
2017-12-26T13:07:22.686Z,13.80
2017-12-26T13:09:50.511Z,13.80
2017-12-26T13:12:18.299Z,13.50
2017-12-26T13:14:46.232Z,13.60
2017-12-26T13:17:14.298Z,13.70
2017-12-26T13:19:42.486Z,13.60
2017-12-26T13:22:10.342Z,13.60
2017-12-26T13:24:39.277Z,13.50
2017-12-26T13:27:07.241Z,13.60
2017-12-26T13:29:36.571Z,13.70
2017-12-26T13:32:06.253Z,13.90
2017-12-26T13:34:34.086Z,13.90
2017-12-26T13:37:01.969Z,13.90
2017-12-26T13:39:29.850Z,14.10
2017-12-26T13:41:57.757Z,14.00
2017-12-26T13:44:28.704Z,14.20
2017-12-26T13:46:56.553Z,14.20
2017-12-26T13:49:26.143Z,14.10
2017-12-26T13:51:54.988Z,14.10
2017-12-26T13:54:22.962Z,14.30
2017-12-26T13:56:51.681Z,14.20
2017-12-26T13:59:19.629Z,14.30
2017-12-26T14:01:47.715Z,14.20
2017-12-26T14:04:15.807Z,14.30
2017-12-26T14:06:44.526Z,13.90
2017-12-26T14:09:15.838Z,13.90
2017-12-26T14:11:44.464Z,14.20
2017-12-26T14:14:12.487Z,14.10
2017-12-26T14:16:43.003Z,14.30
2017-12-26T14:19:10.888Z,14.20
2017-12-26T14:21:38.807Z,14.50
2017-12-26T14:24:06.676Z,14.30
2017-12-26T14:26:34.659Z,14.40
2017-12-26T14:29:02.874Z,14.30
2017-12-26T14:31:30.711Z,14.60
2017-12-26T14:33:59.470Z,14.00
2017-12-26T14:36:27.291Z,13.90
2017-12-26T14:38:55.160Z,14.20
2017-12-26T14:41:23.068Z,14.20
2017-12-26T14:43:50.974Z,14.30
2017-12-26T14:46:18.827Z,13.80
2017-12-26T14:48:46.790Z,13.40
2017-12-26T14:51:14.684Z,13.10
2017-12-26T14:53:43.499Z,13.30
2017-12-26T14:56:12.139Z,13.50
2017-12-26T14:58:39.999Z,13.40
2017-12-26T15:01:07.824Z,13.80
2017-12-26T15:03:36.436Z,14.20
2017-12-26T15:06:04.356Z,14.10
2017-12-26T15:08:33.059Z,13.80
2017-12-26T15:11:01.674Z,13.90
2017-12-26T15:13:29.509Z,13.90
2017-12-26T15:15:58.029Z,14.20
2017-12-26T15:18:25.936Z,14.20
2017-12-26T15:20:53.899Z,13.80
2017-12-26T15:23:22.448Z,14.20
2017-12-26T15:25:50.217Z,14.10
2017-12-26T15:28:17.972Z,14.30
2017-12-26T15:30:45.893Z,14.00
2017-12-26T15:33:13.758Z,14.20
2017-12-26T15:35:41.531Z,14.40
2017-12-26T15:38:10.284Z,14.30
2017-12-26T15:40:38.161Z,14.30
2017-12-26T15:43:05.963Z,14.30
2017-12-26T15:45:33.791Z,14.30
2017-12-26T15:48:01.661Z,14.60
2017-12-26T15:50:29.530Z,14.40
2017-12-26T15:52:57.303Z,14.40
2017-12-26T15:55:25.893Z,14.30
2017-12-26T15:57:53.693Z,14.30
2017-12-26T16:00:21.462Z,14.30
2017-12-26T16:02:50.003Z,14.40
2017-12-26T16:05:18.705Z,14.50
2017-12-26T16:07:46.573Z,14.40
2017-12-26T16:10:14.326Z,14.40
2017-12-26T16:12:42.945Z,14.70
2017-12-26T16:15:10.780Z,14.60
2017-12-26T16:17:39.445Z,14.70
2017-12-26T16:20:07.236Z,14.60
2017-12-26T16:22:35.041Z,14.60
2017-12-26T16:25:02.804Z,14.40
2017-12-26T16:27:30.569Z,14.20
2017-12-26T16:29:58.337Z,14.40
2017-12-26T16:32:26.114Z,14.40
2017-12-26T16:34:53.896Z,14.20
2017-12-26T16:37:21.662Z,14.10
2017-12-26T16:39:49.534Z,14.20
2017-12-26T16:42:18.134Z,14.30
2017-12-26T16:44:46.706Z,14.20
2017-12-26T16:47:15.286Z,14.30
2017-12-26T16:49:43.899Z,14.20
2017-12-26T16:52:11.761Z,14.10
2017-12-26T16:54:39.655Z,14.10
2017-12-26T16:57:07.500Z,14.20
2017-12-26T16:59:35.264Z,14.30
2017-12-26T17:02:03.045Z,14.20
2017-12-26T17:04:30.880Z,14.20
2017-12-26T17:06:59.495Z,14.30
2017-12-26T17:09:27.450Z,14.20
2017-12-26T17:11:55.417Z,14.30
2017-12-26T17:14:23.280Z,14.80
2017-12-26T17:16:51.155Z,14.60
2017-12-26T17:19:18.999Z,14.20
2017-12-26T17:21:46.837Z,14.20
2017-12-26T17:24:14.772Z,14.20
2017-12-26T17:26:42.590Z,14.20
2017-12-26T17:29:11.277Z,14.60
2017-12-26T17:31:39.863Z,14.60
2017-12-26T17:34:07.758Z,14.60
2017-12-26T17:36:35.640Z,14.20
2017-12-26T17:39:03.544Z,14.50
2017-12-26T17:41:31.309Z,14.70
2017-12-26T17:43:59.171Z,15.40
2017-12-26T17:46:26.998Z,16.70
2017-12-26T17:48:54.874Z,17.10
2017-12-26T17:51:22.906Z,17.20
2017-12-26T17:53:51.488Z,15.60
2017-12-26T17:56:19.267Z,15.50
2017-12-26T17:58:47.106Z,15.10
2017-12-26T18:01:15.753Z,17.80
2017-12-26T18:03:43.581Z,17.70
2017-12-26T18:06:11.442Z,19.80
2017-12-26T18:08:39.272Z,20.90
2017-12-26T18:11:07.107Z,21.50
2017-12-26T18:13:34.952Z,21.80
2017-12-26T18:16:02.815Z,22.10
2017-12-26T18:18:30.742Z,22.30
2017-12-26T18:20:59.370Z,22.50
2017-12-26T18:23:27.126Z,22.50
2017-12-26T18:25:54.936Z,22.60
2017-12-26T18:28:22.806Z,22.70
2017-12-26T18:30:50.663Z,22.70
2017-12-26T18:33:18.472Z,22.80
2017-12-26T18:35:46.305Z,22.70
2017-12-26T18:38:14.160Z,22.40
2017-12-26T18:40:41.969Z,20.80
2017-12-26T18:43:09.779Z,21.60
2017-12-26T18:45:37.692Z,22.20
2017-12-26T18:48:06.251Z,22.70
2017-12-26T18:50:34.100Z,22.60
2017-12-26T18:53:02.171Z,22.90
2017-12-26T18:55:30.129Z,22.80
2017-12-26T18:57:57.962Z,22.90
2017-12-26T19:00:25.760Z,23.10
2017-12-26T19:02:54.344Z,23.40
2017-12-26T19:05:22.299Z,23.30
2017-12-26T19:07:50.146Z,23.40
2017-12-26T19:10:17.940Z,23.40
2017-12-26T19:12:45.910Z,23.40
2017-12-26T19:15:13.740Z,23.40
2017-12-26T19:17:41.641Z,23.40
2017-12-26T19:20:09.620Z,23.30
2017-12-26T19:22:38.912Z,23.30
2017-12-26T19:25:06.885Z,23.40
2017-12-26T19:27:34.753Z,23.30
2017-12-26T19:30:02.548Z,23.30
2017-12-26T19:32:31.305Z,23.40
2017-12-26T19:34:59.149Z,23.30
2017-12-26T19:37:26.966Z,23.60
2017-12-26T19:39:55.579Z,23.50
2017-12-26T19:42:23.478Z,23.40
2017-12-26T19:44:51.420Z,23.40
2017-12-26T19:47:19.243Z,23.50
2017-12-26T19:49:47.881Z,23.50
2017-12-26T19:52:15.720Z,23.50
2017-12-26T19:54:43.637Z,23.60
2017-12-26T19:57:11.439Z,23.60
2017-12-26T19:59:40.039Z,23.60
2017-12-26T20:02:07.928Z,23.60
2017-12-26T20:04:37.445Z,23.60
2017-12-26T20:07:05.560Z,23.60
2017-12-26T20:09:34.361Z,23.70
2017-12-26T20:12:02.348Z,23.60
2017-12-26T20:14:30.190Z,23.70
2017-12-26T20:16:59.731Z,23.60
2017-12-26T20:19:27.643Z,23.50
2017-12-26T20:21:55.463Z,23.60
2017-12-26T20:24:23.327Z,23.60
2017-12-26T20:26:51.123Z,23.60
2017-12-26T20:29:20.502Z,23.70
2017-12-26T20:31:48.602Z,23.60
2017-12-26T20:34:16.963Z,23.60
2017-12-26T20:36:45.181Z,23.70
2017-12-26T20:39:13.514Z,23.70
2017-12-26T20:41:41.766Z,23.70
2017-12-26T20:44:09.653Z,23.70
2017-12-26T20:46:37.470Z,23.80
2017-12-26T20:49:06.132Z,23.80
2017-12-26T20:51:34.798Z,23.70
2017-12-26T20:54:02.852Z,23.60
2017-12-26T20:56:31.590Z,23.70
2017-12-26T20:59:00.261Z,23.50
2017-12-26T21:01:28.321Z,23.50
2017-12-26T21:03:56.261Z,23.50
2017-12-26T21:06:24.240Z,23.70
2017-12-26T21:08:52.836Z,23.70
2017-12-26T21:11:20.926Z,23.60
2017-12-26T21:13:49.970Z,23.70
2017-12-26T21:16:18.363Z,23.50
2017-12-26T21:18:46.133Z,23.40
2017-12-26T21:21:14.046Z,23.50
2017-12-26T21:23:41.823Z,23.50
2017-12-26T21:26:10.524Z,23.70
2017-12-26T21:28:38.376Z,23.70
2017-12-26T21:31:06.950Z,23.80
